KOXB

Details ICAO KOXB
Name OCEAN CITY MUNI
Region United States
Timezone America/New_York (UTC-5.0)
Plans Departing 7
Arriving 28
Stats Elevation 11 ft / 3 m (AMSL)
Location 38.310483° -75.124276°
Runways 2
Magnetic Variation 11.783° W
Sunrise 2017-12-13 12:10:23 UTC / 2017-12-13 07:10:23 Local
Sunset 2017-12-13 21:42:03 UTC / 2017-12-13 16:42:03 Local
Advertisement - Login to hide

Runways

ID Width Length Bearing (true) Bearing (mag) Surface Threshold Offset Overrun Length
02 75 ft / 23 m 3,206 ft / 977 m 10.10° 21.88° Asphalt 0 ft / 0 m 0 ft / 0 m
14 75 ft / 23 m 4,071 ft / 1,241 m 133.24° 145.02° Asphalt 0 ft / 0 m 0 ft / 0 m
20 75 ft / 23 m 3,206 ft / 977 m 190.10° 201.88° Asphalt 0 ft / 0 m 0 ft / 0 m
32 75 ft / 23 m 4,071 ft / 1,241 m 313.25° 325.03° Asphalt 0 ft / 0 m 0 ft / 0 m

Map

Weather


0- 5 10 15 20 25 30 35+ Temperature / ° C

Clouds and Precipitation
Forecast for 2017-12-13 18:00 UTC. Updated 2 hours ago

Ground ~20,000 ft ~40,000 ft Winds

METAR

KOXB 131853Z AUTO 29014G22KT 10SM CLR M01/M13 A2978 RMK AO2 PK WND 28030/1804 SLP085 T10061128

TAF

Not found

Frequencies

Recorded 119.02 MHz ASOS
Approach 127.95 MHz PATUXENT APP/DEP
Unicom 122.80 MHz CTAF/UNICOM
Warning: Do not use this data for real-world aviation or navigation. No guarantee of current accuracy is given.